createdAt,value
2019-03-30T00:01:50.531Z,10.54
2019-03-30T00:04:19.838Z,10.56
2019-03-30T00:06:48.862Z,10.57
2019-03-30T00:09:17.851Z,10.56
2019-03-30T00:11:46.939Z,10.54
2019-03-30T00:14:15.946Z,10.55
2019-03-30T00:16:44.967Z,10.55
2019-03-30T00:19:14.099Z,10.57
2019-03-30T00:21:43.235Z,10.56
2019-03-30T00:24:12.237Z,10.54
2019-03-30T00:26:41.348Z,10.51
2019-03-30T00:29:10.351Z,10.53
2019-03-30T00:31:39.368Z,10.54
2019-03-30T00:34:08.501Z,10.50
2019-03-30T00:36:37.597Z,10.48
2019-03-30T00:39:06.919Z,10.44
2019-03-30T00:41:36.029Z,10.40
2019-03-30T00:44:05.198Z,10.39
2019-03-30T00:46:34.328Z,10.39
2019-03-30T00:49:03.307Z,10.37
2019-03-30T00:51:32.367Z,10.38
2019-03-30T00:54:01.371Z,10.37
2019-03-30T00:56:30.465Z,10.35
2019-03-30T00:58:59.496Z,10.34
2019-03-30T01:01:28.491Z,10.33
2019-03-30T01:03:57.505Z,10.31
2019-03-30T01:06:26.530Z,10.29
2019-03-30T01:08:55.551Z,10.29
2019-03-30T01:11:24.572Z,10.25
2019-03-30T01:13:53.577Z,10.24
2019-03-30T01:16:22.661Z,10.21
2019-03-30T01:18:51.679Z,10.16
2019-03-30T01:21:20.695Z,10.13
2019-03-30T01:23:49.747Z,10.12
2019-03-30T01:26:18.716Z,10.10
2019-03-30T01:28:47.704Z,10.08
2019-03-30T01:31:16.715Z,10.05
2019-03-30T01:33:45.734Z,9.99
2019-03-30T01:36:14.739Z,9.98
2019-03-30T01:38:43.766Z,9.97
2019-03-30T01:41:12.756Z,9.93
2019-03-30T01:43:41.735Z,9.89
2019-03-30T01:46:10.730Z,9.87
2019-03-30T01:48:39.729Z,9.85
2019-03-30T01:51:08.739Z,9.85
2019-03-30T01:53:37.753Z,9.87
2019-03-30T01:56:06.868Z,9.85
2019-03-30T01:58:35.932Z,9.82
2019-03-30T02:01:05.207Z,9.78
2019-03-30T02:03:34.213Z,9.76
2019-03-30T02:06:03.525Z,9.78
2019-03-30T02:08:32.887Z,9.78
2019-03-30T02:11:01.986Z,9.77
2019-03-30T02:13:31.075Z,9.76
2019-03-30T02:16:00.145Z,9.74
2019-03-30T02:18:29.137Z,9.74
2019-03-30T02:20:58.163Z,9.73
2019-03-30T02:23:27.478Z,9.72
2019-03-30T02:25:56.469Z,9.70
2019-03-30T02:28:25.475Z,9.69
2019-03-30T02:30:54.486Z,9.68
2019-03-30T02:33:23.499Z,9.67
2019-03-30T02:35:52.570Z,9.65
2019-03-30T02:38:21.581Z,9.65
2019-03-30T02:40:50.671Z,9.65
2019-03-30T02:43:19.668Z,9.63
2019-03-30T02:45:48.745Z,9.59
2019-03-30T02:48:17.755Z,9.61
2019-03-30T02:50:50.396Z,9.57
2019-03-30T02:53:17.563Z,9.57
2019-03-30T02:55:46.672Z,9.51
2019-03-30T02:58:15.765Z,9.48
2019-03-30T03:00:44.898Z,9.38
2019-03-30T03:03:14.141Z,9.34
2019-03-30T03:05:43.269Z,9.32
2019-03-30T03:08:12.516Z,9.32
2019-03-30T03:10:41.518Z,9.35
2019-03-30T03:13:10.554Z,9.37
2019-03-30T03:15:39.535Z,9.36
2019-03-30T03:18:08.543Z,9.34
2019-03-30T03:20:37.525Z,9.32
2019-03-30T03:23:06.537Z,9.32
2019-03-30T03:25:35.534Z,9.29
2019-03-30T03:28:04.543Z,9.27
2019-03-30T03:30:33.547Z,9.29
2019-03-30T03:33:02.568Z,9.29
2019-03-30T03:35:31.571Z,9.29
2019-03-30T03:38:00.600Z,9.31
2019-03-30T03:40:29.691Z,9.31
2019-03-30T03:42:59.073Z,9.27
2019-03-30T03:45:28.067Z,9.23
2019-03-30T03:47:57.183Z,9.22
2019-03-30T03:50:58.010Z,9.22
2019-03-30T03:53:27.104Z,9.20
2019-03-30T03:55:56.108Z,9.20
2019-03-30T03:58:26.915Z,9.19
2019-03-30T04:00:55.931Z,9.17
2019-03-30T04:03:24.922Z,9.18
2019-03-30T04:05:55.922Z,9.18
2019-03-30T04:08:24.946Z,9.19
2019-03-30T04:10:53.998Z,9.13
2019-03-30T04:13:23.017Z,8.77
2019-03-30T04:15:52.038Z,8.57
2019-03-30T04:18:21.093Z,8.59
2019-03-30T04:20:50.222Z,8.68
2019-03-30T04:23:19.611Z,8.68
2019-03-30T04:25:48.640Z,8.54
2019-03-30T04:28:17.731Z,8.65
2019-03-30T04:30:46.731Z,8.85
2019-03-30T04:33:15.747Z,8.95
2019-03-30T04:35:44.840Z,8.97
2019-03-30T04:38:14.478Z,9.01
2019-03-30T04:40:43.727Z,9.01
2019-03-30T04:43:12.735Z,9.05
2019-03-30T04:45:42.049Z,9.04
2019-03-30T04:48:11.350Z,9.06
2019-03-30T04:50:40.438Z,9.04
2019-03-30T04:53:09.581Z,9.00
2019-03-30T04:55:38.682Z,9.01
2019-03-30T04:58:09.397Z,9.02
2019-03-30T05:00:38.495Z,8.87
2019-03-30T05:03:07.491Z,8.72
2019-03-30T05:05:36.473Z,8.67
2019-03-30T05:08:05.507Z,8.59
2019-03-30T05:10:34.577Z,8.68
2019-03-30T05:13:03.580Z,8.73
2019-03-30T05:15:32.576Z,8.84
2019-03-30T05:18:01.706Z,8.88
2019-03-30T05:20:30.710Z,8.92
2019-03-30T05:22:59.714Z,8.94
2019-03-30T05:25:28.715Z,8.94
2019-03-30T05:27:57.720Z,8.77
2019-03-30T05:30:26.738Z,8.69
2019-03-30T05:33:05.608Z,8.82
2019-03-30T05:35:26.513Z,8.83
2019-03-30T05:37:55.535Z,8.88
2019-03-30T05:40:24.551Z,8.95
2019-03-30T05:42:53.563Z,9.02
2019-03-30T05:45:22.561Z,9.05
2019-03-30T05:47:51.633Z,9.11
2019-03-30T05:50:21.008Z,9.15
2019-03-30T05:52:50.004Z,9.15
2019-03-30T05:55:19.385Z,9.20
2019-03-30T05:57:48.402Z,9.26
2019-03-30T06:00:20.589Z,9.15
2019-03-30T06:02:49.693Z,8.93
2019-03-30T06:05:18.681Z,8.87
2019-03-30T06:07:47.748Z,9.01
2019-03-30T06:10:16.739Z,9.02
2019-03-30T06:12:45.736Z,9.01
2019-03-30T06:15:14.718Z,9.07
2019-03-30T06:17:43.814Z,9.05
2019-03-30T06:20:12.817Z,9.02
2019-03-30T06:22:41.830Z,9.21
2019-03-30T06:25:10.867Z,9.16
2019-03-30T06:27:39.922Z,9.12
2019-03-30T06:30:28.637Z,9.22
2019-03-30T06:32:57.625Z,9.38
2019-03-30T06:35:26.639Z,9.64
2019-03-30T06:37:55.641Z,9.80
2019-03-30T06:40:24.670Z,10.03
2019-03-30T06:42:53.699Z,10.06
2019-03-30T06:45:22.794Z,10.23
2019-03-30T06:47:51.808Z,10.33
2019-03-30T06:50:20.831Z,10.28
2019-03-30T06:52:57.432Z,10.37
2019-03-30T06:55:20.660Z,10.52
2019-03-30T06:57:49.824Z,10.64
2019-03-30T07:00:22.517Z,10.54
2019-03-30T07:02:51.529Z,10.00
2019-03-30T07:05:20.543Z,10.64
2019-03-30T07:07:49.591Z,10.71
2019-03-30T07:10:18.592Z,10.76
2019-03-30T07:12:47.785Z,10.82
2019-03-30T07:15:16.791Z,11.02
2019-03-30T07:17:47.021Z,12.44
2019-03-30T07:20:27.257Z,14.66
2019-03-30T07:23:10.756Z,15.61
2019-03-30T07:25:28.033Z,16.17
2019-03-30T07:27:57.498Z,16.20
2019-03-30T07:30:26.489Z,16.42
2019-03-30T07:32:55.525Z,15.47
2019-03-30T07:35:24.586Z,14.43
2019-03-30T07:37:53.586Z,14.26
2019-03-30T07:40:22.569Z,13.58
2019-03-30T07:42:51.579Z,12.62
2019-03-30T07:45:20.598Z,12.36
2019-03-30T07:47:49.679Z,12.23
2019-03-30T07:50:18.787Z,12.06
2019-03-30T07:52:47.798Z,12.10
2019-03-30T07:55:16.835Z,12.12
2019-03-30T07:57:45.830Z,12.09
2019-03-30T08:00:15.039Z,12.16
2019-03-30T08:02:44.081Z,12.34
2019-03-30T08:05:13.080Z,12.42
2019-03-30T08:07:42.641Z,12.43
2019-03-30T08:10:11.750Z,12.63
2019-03-30T08:12:40.769Z,12.73
2019-03-30T08:15:10.358Z,12.71
2019-03-30T08:17:39.453Z,12.76
2019-03-30T08:20:08.804Z,12.78
2019-03-30T08:22:38.040Z,12.85
2019-03-30T08:25:07.397Z,12.96
2019-03-30T08:27:36.682Z,13.81
2019-03-30T08:30:06.907Z,14.14
2019-03-30T08:32:35.917Z,14.11
2019-03-30T08:35:05.263Z,14.02
2019-03-30T08:37:34.274Z,13.70
2019-03-30T08:40:03.283Z,13.39
2019-03-30T08:42:32.314Z,13.22
2019-03-30T08:45:01.423Z,13.25
2019-03-30T08:47:30.444Z,13.25
2019-03-30T08:49:59.464Z,13.26
2019-03-30T08:52:28.459Z,13.41
2019-03-30T08:54:57.471Z,13.49
2019-03-30T08:57:26.481Z,13.48
2019-03-30T08:59:55.492Z,13.48
2019-03-30T09:02:24.517Z,13.50
2019-03-30T09:04:53.527Z,13.52
2019-03-30T09:07:22.539Z,13.58
2019-03-30T09:09:51.541Z,13.68
2019-03-30T09:12:20.777Z,13.75
2019-03-30T09:14:49.795Z,13.77
2019-03-30T09:17:18.814Z,13.73
2019-03-30T09:19:47.819Z,13.77
2019-03-30T09:22:17.094Z,13.84
2019-03-30T09:24:46.108Z,13.98
2019-03-30T09:27:15.135Z,14.10
2019-03-30T09:29:44.115Z,14.11
2019-03-30T09:32:15.052Z,14.15
2019-03-30T09:34:44.156Z,14.25
2019-03-30T09:37:13.169Z,14.30
2019-03-30T09:39:42.411Z,14.42
2019-03-30T09:42:11.412Z,14.56
2019-03-30T09:44:40.419Z,14.72
2019-03-30T09:47:09.471Z,14.92
2019-03-30T09:49:38.583Z,15.07
2019-03-30T09:52:08.189Z,15.13
2019-03-30T09:54:37.183Z,15.20
2019-03-30T09:57:06.530Z,15.18
2019-03-30T09:59:35.948Z,15.21
2019-03-30T10:02:05.399Z,15.26
2019-03-30T10:04:34.693Z,15.31
2019-03-30T10:07:03.685Z,15.51
2019-03-30T10:09:32.768Z,15.65
2019-03-30T10:12:03.912Z,15.78
2019-03-30T10:14:33.210Z,16.25
2019-03-30T10:17:02.219Z,16.73
2019-03-30T10:19:31.505Z,16.45
2019-03-30T10:22:00.535Z,16.19
2019-03-30T10:24:37.901Z,16.11
2019-03-30T10:27:00.295Z,16.10
2019-03-30T10:29:29.632Z,16.17
2019-03-30T10:32:00.020Z,16.24
2019-03-30T10:34:29.116Z,16.32
2019-03-30T10:36:58.130Z,16.13
2019-03-30T10:39:27.161Z,16.28
2019-03-30T10:41:56.473Z,16.49
2019-03-30T10:44:25.770Z,16.55
2019-03-30T10:46:54.894Z,16.68
2019-03-30T10:49:23.886Z,16.69
2019-03-30T10:51:54.455Z,16.63
2019-03-30T10:54:23.648Z,16.67
2019-03-30T10:56:52.643Z,16.76
2019-03-30T10:59:21.657Z,16.74
2019-03-30T11:01:50.676Z,16.53
2019-03-30T11:04:19.705Z,16.51
2019-03-30T11:06:48.712Z,16.73
2019-03-30T11:09:17.738Z,16.89
2019-03-30T11:11:46.834Z,16.85
2019-03-30T11:14:15.871Z,16.94
2019-03-30T11:16:44.883Z,16.98
2019-03-30T11:19:13.891Z,17.04
2019-03-30T11:21:42.915Z,17.08
2019-03-30T11:24:11.930Z,17.14
2019-03-30T11:26:40.966Z,17.11
2019-03-30T11:29:10.057Z,17.36
2019-03-30T11:31:39.045Z,17.51
2019-03-30T11:34:08.560Z,17.69
2019-03-30T11:36:37.857Z,17.74
2019-03-30T11:39:06.916Z,17.62
2019-03-30T11:41:35.922Z,17.32
2019-03-30T11:44:04.950Z,17.50
2019-03-30T11:46:33.989Z,17.60
2019-03-30T11:49:02.993Z,17.57
2019-03-30T11:51:32.158Z,17.35
2019-03-30T11:54:01.111Z,17.01
2019-03-30T11:56:30.177Z,17.01
2019-03-30T11:58:59.211Z,17.05
2019-03-30T12:01:28.231Z,17.35
2019-03-30T12:03:57.245Z,17.78
2019-03-30T12:06:26.503Z,17.93
2019-03-30T12:08:55.862Z,17.88
2019-03-30T12:11:24.876Z,17.59
2019-03-30T12:13:53.903Z,17.54
2019-03-30T12:16:22.919Z,17.59
2019-03-30T12:18:51.943Z,17.39
2019-03-30T12:21:20.963Z,17.41
2019-03-30T12:23:49.984Z,17.64
2019-03-30T12:26:19.234Z,17.70
2019-03-30T12:28:48.271Z,17.74
2019-03-30T12:31:17.291Z,17.47
2019-03-30T12:33:46.331Z,17.75
2019-03-30T12:36:15.626Z,17.49
2019-03-30T12:38:44.648Z,17.66
2019-03-30T12:41:13.685Z,17.60
2019-03-30T12:43:43.151Z,16.91
2019-03-30T12:46:12.158Z,17.17
2019-03-30T12:48:41.204Z,17.14
2019-03-30T12:51:10.190Z,17.20
2019-03-30T12:53:49.455Z,17.86
2019-03-30T12:56:09.920Z,18.20
2019-03-30T12:58:39.216Z,18.32
2019-03-30T13:01:08.291Z,18.65
2019-03-30T13:03:37.402Z,18.68
2019-03-30T13:06:06.419Z,18.63
2019-03-30T13:08:35.472Z,18.42
2019-03-30T13:11:04.518Z,18.37
2019-03-30T13:13:33.547Z,18.48
2019-03-30T13:16:02.571Z,18.28
2019-03-30T13:18:31.662Z,18.38
2019-03-30T13:21:00.679Z,18.31
2019-03-30T13:23:29.703Z,18.25
2019-03-30T13:26:03.989Z,18.98
2019-03-30T13:28:29.426Z,19.51
2019-03-30T13:30:58.420Z,19.59
2019-03-30T13:33:27.456Z,19.28
2019-03-30T13:35:56.466Z,19.46
2019-03-30T13:38:25.948Z,19.73
2019-03-30T13:40:55.053Z,19.98
2019-03-30T13:43:24.067Z,19.98
2019-03-30T13:45:53.070Z,20.01
2019-03-30T13:48:22.112Z,19.80
2019-03-30T13:50:51.128Z,20.06
2019-03-30T13:53:20.139Z,20.09
2019-03-30T13:55:49.175Z,20.12
2019-03-30T13:58:18.246Z,19.74
2019-03-30T14:00:47.262Z,19.67
2019-03-30T14:03:16.291Z,19.84
2019-03-30T14:05:45.643Z,19.37
2019-03-30T14:08:14.948Z,19.06
2019-03-30T14:10:44.066Z,19.48
2019-03-30T14:13:13.094Z,19.66
2019-03-30T14:15:42.100Z,19.79
2019-03-30T14:18:11.205Z,19.98
2019-03-30T14:20:40.185Z,20.21
2019-03-30T14:23:09.207Z,20.15
2019-03-30T14:25:38.242Z,20.06
2019-03-30T14:28:07.268Z,20.00
2019-03-30T14:30:36.258Z,20.27
2019-03-30T14:33:05.269Z,20.00
2019-03-30T14:35:34.269Z,19.67
2019-03-30T14:38:03.363Z,19.84
2019-03-30T14:40:32.381Z,19.97
2019-03-30T14:43:01.650Z,20.01
2019-03-30T14:45:30.636Z,19.90
2019-03-30T14:47:59.935Z,19.57
2019-03-30T14:50:28.939Z,19.66
2019-03-30T14:52:58.248Z,19.89
2019-03-30T14:55:27.213Z,19.48
2019-03-30T14:57:56.469Z,19.45
2019-03-30T15:00:25.585Z,20.05
2019-03-30T15:02:54.757Z,20.56
2019-03-30T15:05:23.701Z,20.85
2019-03-30T15:07:53.003Z,20.31
2019-03-30T15:10:22.015Z,20.24
2019-03-30T15:12:51.020Z,19.98
2019-03-30T15:15:20.033Z,19.44
2019-03-30T15:17:49.042Z,19.38
2019-03-30T15:20:18.324Z,19.76
2019-03-30T15:22:47.710Z,20.16
2019-03-30T15:25:16.982Z,20.08
2019-03-30T15:27:46.003Z,19.92
2019-03-30T15:30:16.056Z,19.90
2019-03-30T15:32:45.074Z,19.94
2019-03-30T15:35:14.236Z,20.21
2019-03-30T15:37:43.249Z,19.89
2019-03-30T15:40:12.342Z,19.89
2019-03-30T15:42:41.372Z,19.93
2019-03-30T15:45:10.489Z,19.66
2019-03-30T15:47:39.494Z,19.65
2019-03-30T15:50:08.598Z,19.91
2019-03-30T15:52:37.613Z,19.92
2019-03-30T15:55:06.688Z,19.78
2019-03-30T15:57:35.701Z,19.95
2019-03-30T16:00:07.047Z,20.04
2019-03-30T16:02:36.301Z,20.27
2019-03-30T16:05:05.701Z,20.22
2019-03-30T16:07:34.731Z,20.24
2019-03-30T16:10:04.150Z,20.15
2019-03-30T16:12:33.195Z,19.83
2019-03-30T16:15:02.222Z,19.97
2019-03-30T16:17:31.573Z,19.87
2019-03-30T16:20:00.578Z,19.79
2019-03-30T16:22:29.868Z,19.94
2019-03-30T16:24:58.898Z,19.88
2019-03-30T16:27:29.403Z,19.40
2019-03-30T16:29:59.145Z,19.07
2019-03-30T16:32:28.159Z,19.24
2019-03-30T16:34:57.180Z,19.29
2019-03-30T16:37:27.005Z,19.29
2019-03-30T16:39:56.330Z,19.14
2019-03-30T16:42:25.347Z,19.32
2019-03-30T16:44:54.463Z,19.40
2019-03-30T16:47:23.474Z,19.48
2019-03-30T16:49:52.820Z,19.42
2019-03-30T16:52:22.236Z,19.32
2019-03-30T16:54:51.326Z,19.13
2019-03-30T16:57:20.312Z,18.91
2019-03-30T16:59:49.419Z,18.67
2019-03-30T17:02:18.452Z,18.46
2019-03-30T17:04:47.448Z,18.25
2019-03-30T17:07:16.473Z,18.06
2019-03-30T17:09:45.555Z,17.87
2019-03-30T17:12:14.691Z,17.77
2019-03-30T17:14:43.604Z,17.66
2019-03-30T17:17:13.033Z,17.52
2019-03-30T17:19:42.045Z,17.42
2019-03-30T17:22:11.299Z,17.36
2019-03-30T17:24:40.406Z,17.34
2019-03-30T17:27:09.506Z,17.35
2019-03-30T17:29:38.592Z,17.28
2019-03-30T17:32:07.774Z,17.17
2019-03-30T17:34:36.849Z,17.04
2019-03-30T17:37:05.956Z,16.96
2019-03-30T17:39:35.038Z,16.83
2019-03-30T17:42:04.072Z,16.62
2019-03-30T17:44:33.164Z,16.40
2019-03-30T17:47:02.265Z,16.18
2019-03-30T17:49:31.293Z,16.00
2019-03-30T17:52:00.298Z,15.99
2019-03-30T17:54:29.294Z,15.94
2019-03-30T17:56:58.303Z,15.96
2019-03-30T17:59:27.394Z,16.04
2019-03-30T18:01:56.747Z,15.95
2019-03-30T18:04:25.789Z,15.85
2019-03-30T18:06:54.825Z,15.80
2019-03-30T18:09:23.824Z,15.71
2019-03-30T18:11:52.836Z,15.72
2019-03-30T18:14:21.832Z,15.72
2019-03-30T18:16:50.827Z,15.63
2019-03-30T18:19:19.860Z,15.55
2019-03-30T18:21:48.943Z,15.42
2019-03-30T18:24:18.027Z,15.29
2019-03-30T18:26:46.998Z,15.21
2019-03-30T18:29:16.027Z,15.11
2019-03-30T18:31:45.023Z,15.04
2019-03-30T18:34:14.129Z,14.96
2019-03-30T18:36:43.500Z,14.99
2019-03-30T18:39:12.547Z,15.00
2019-03-30T18:41:41.530Z,14.91
2019-03-30T18:44:10.554Z,14.85
2019-03-30T18:46:39.621Z,14.86
2019-03-30T18:49:08.657Z,14.82
2019-03-30T18:51:37.739Z,14.83
2019-03-30T18:54:06.809Z,14.86
2019-03-30T18:56:36.127Z,14.87
2019-03-30T18:59:05.130Z,14.91
2019-03-30T19:01:34.480Z,14.93
2019-03-30T19:04:03.814Z,14.90
2019-03-30T19:06:32.809Z,14.87
2019-03-30T19:09:01.806Z,14.83
2019-03-30T19:11:31.079Z,14.78
2019-03-30T19:14:00.107Z,14.71
2019-03-30T19:16:29.102Z,14.61
2019-03-30T19:18:58.175Z,14.56
2019-03-30T19:21:27.484Z,14.53
2019-03-30T19:23:56.510Z,14.52
2019-03-30T19:26:25.537Z,14.46
2019-03-30T19:28:56.618Z,14.40
2019-03-30T19:31:25.712Z,14.31
2019-03-30T19:33:54.822Z,14.22
2019-03-30T19:36:24.113Z,14.16
2019-03-30T19:38:53.269Z,14.08
2019-03-30T19:41:22.350Z,14.09
2019-03-30T19:43:51.707Z,13.95
2019-03-30T19:46:20.743Z,13.86
2019-03-30T19:48:49.764Z,13.77
2019-03-30T19:51:18.831Z,13.75
2019-03-30T19:53:48.072Z,13.64
2019-03-30T19:56:17.393Z,13.60
2019-03-30T19:58:46.453Z,13.57
2019-03-30T20:01:15.513Z,13.49
2019-03-30T20:03:44.553Z,13.48
2019-03-30T20:06:13.574Z,13.39
2019-03-30T20:08:42.596Z,13.38
2019-03-30T20:11:11.601Z,13.29
2019-03-30T20:13:40.618Z,13.29
2019-03-30T20:16:09.633Z,13.24
2019-03-30T20:18:38.678Z,13.20
2019-03-30T20:21:07.934Z,13.39
2019-03-30T20:23:37.034Z,13.35
2019-03-30T20:26:06.034Z,13.24
2019-03-30T20:28:35.371Z,13.10
2019-03-30T20:31:04.406Z,13.01
2019-03-30T20:33:33.435Z,12.91
2019-03-30T20:36:02.442Z,12.90
2019-03-30T20:38:31.458Z,12.77
2019-03-30T20:41:00.539Z,12.76
2019-03-30T20:43:29.811Z,12.73
2019-03-30T20:45:58.822Z,12.66
2019-03-30T20:48:28.103Z,12.52
2019-03-30T20:50:57.226Z,12.55
2019-03-30T20:53:26.238Z,12.55
2019-03-30T20:55:55.394Z,12.54
2019-03-30T20:58:24.691Z,12.42
2019-03-30T21:00:53.689Z,12.24
2019-03-30T21:03:23.039Z,12.20
2019-03-30T21:05:52.031Z,12.21
2019-03-30T21:08:21.085Z,12.15
2019-03-30T21:10:50.102Z,12.09
2019-03-30T21:13:19.456Z,12.07
2019-03-30T21:15:48.563Z,12.02
2019-03-30T21:18:17.722Z,11.15
2019-03-30T21:20:46.812Z,12.13
2019-03-30T21:23:15.879Z,12.13
2019-03-30T21:25:44.894Z,12.15
2019-03-30T21:28:13.939Z,12.18
2019-03-30T21:30:43.026Z,12.13
2019-03-30T21:33:12.294Z,12.08
2019-03-30T21:35:41.591Z,11.99
2019-03-30T21:38:10.578Z,11.85
2019-03-30T21:40:39.603Z,11.82
2019-03-30T21:43:08.616Z,11.81
2019-03-30T21:45:37.645Z,11.78
2019-03-30T21:48:06.666Z,11.75
2019-03-30T21:50:35.709Z,11.69
2019-03-30T21:53:04.729Z,11.52
2019-03-30T21:55:33.987Z,11.53
2019-03-30T21:58:03.102Z,11.48
2019-03-30T22:00:36.849Z,11.61
2019-03-30T22:03:06.125Z,11.59
2019-03-30T22:05:35.566Z,11.48
2019-03-30T22:08:05.413Z,11.33
2019-03-30T22:10:34.593Z,11.30
2019-03-30T22:13:03.603Z,11.32
2019-03-30T22:15:32.640Z,11.33
2019-03-30T22:18:01.731Z,11.30
2019-03-30T22:20:30.772Z,11.36
2019-03-30T22:22:59.808Z,11.33
2019-03-30T22:25:28.888Z,11.22
2019-03-30T22:27:57.928Z,11.23
2019-03-30T22:30:27.242Z,10.64
2019-03-30T22:32:56.466Z,11.16
2019-03-30T22:35:25.503Z,11.03
2019-03-30T22:37:54.523Z,11.04
2019-03-30T22:40:23.563Z,11.05
2019-03-30T22:42:52.584Z,11.07
2019-03-30T22:45:21.632Z,10.91
2019-03-30T22:47:50.660Z,10.91
2019-03-30T22:50:19.689Z,10.85
2019-03-30T22:52:48.713Z,10.85
2019-03-30T22:55:17.880Z,10.90
2019-03-30T22:57:46.899Z,10.92
2019-03-30T23:00:39.081Z,10.92
2019-03-30T23:03:07.028Z,10.94
2019-03-30T23:05:36.033Z,10.95
2019-03-30T23:08:05.059Z,10.92
2019-03-30T23:10:34.114Z,10.81
2019-03-30T23:13:03.170Z,10.84
2019-03-30T23:15:32.160Z,10.82
2019-03-30T23:18:01.161Z,10.84
2019-03-30T23:20:30.456Z,10.82
2019-03-30T23:22:59.518Z,10.82
2019-03-30T23:25:28.546Z,10.76
2019-03-30T23:27:57.539Z,10.66
2019-03-30T23:30:27.563Z,10.69
2019-03-30T23:32:56.562Z,10.73
2019-03-30T23:35:25.538Z,10.75
2019-03-30T23:37:54.612Z,10.64
2019-03-30T23:40:23.662Z,10.55
2019-03-30T23:42:52.682Z,10.44
2019-03-30T23:45:21.691Z,10.37
2019-03-30T23:47:50.708Z,10.27
2019-03-30T23:50:19.708Z,10.26
2019-03-30T23:52:48.748Z,10.26
2019-03-30T23:55:17.778Z,10.27
2019-03-30T23:57:46.776Z,10.30
